Airfield :







YOU CAN JOIN US ON...

 
LOGIN :

Register | Disclaimer

   EN    FR    IT 

 









Legend :    VFR   Marginal VFR   IFR   Intensive IFR   Very Intensive IFR
Visi :
Ceiling :
>= 8 km
>= 3000ft
5 to 8 km
1000 to 3000 ft
1500m to 5 km
500 to 1000 ft
800 to 1500m
200 to 500 ft
< 800m
< 200 ft
Symbols :   Thunderstorms  Fog  Heavy snow  Heavy precipitations  Wind > 20 kt






- Airport Elevation : 496 ft
- IATA code : YQX


CYQX - Gander

CURRENT METAR :
  • 071000Z 21012G17KT 20SM FEW030 BKN070 M03/M07 A2940 RMK SC1AC7 SC TR SLP964

EXPIRED METARs :
  • 070900Z 21010KT 20SM FEW030 BKN064 M03/M07 A2939 RMK SC1SC5 SLP961
  • 070800Z 22012G19KT 15SM FEW030 BKN059 M03/M07 A2940 RMK SC1SC5 SLP965

TAF TAF CYQX
Valid from the 07 at 06:00 until the 08 at 06:00 UTC


070538Z 0706/0806 22012KT P6SM SCT015
TEMPO 0706/0713 BKN015
FM071300 23015G25KT P6SM BKN015
FM071600 24015G25KT P6SM BKN030
FM071900 29015G25KT 21/2SM -SHSN OVC015
FM072200 30010G20KT P6SM BKN025
FM080500 23010KT P6SM SCT025 RMK NXT FCST BY 071200Z



MET'MAP, your aeronautical weather chart ! - Copyright ORBIFLY December 2007 - Disclaimer

ORBIFLY MET'MAP TEAM :

Programming & Development : Alexandra Zaïnal
Concept & original design : Baudouin d'Aumeries
Assistance for programming : Marc-Olivier Méhu
Technical & hardware support : Manuel Goepfert

Contact : metmap@orbifly.com




SOURCES & CREDITS :

   NOAA